createdAt,value
2018-11-20T00:01:50.105Z,7.93
2018-11-20T00:04:53.254Z,8.80
2018-11-20T00:07:42.337Z,7.50
2018-11-20T00:10:28.884Z,8.13
2018-11-20T00:13:05.756Z,9.83
2018-11-20T00:16:03.065Z,8.63
2018-11-20T00:18:57.357Z,9.70
2018-11-20T00:21:48.473Z,8.33
2018-11-20T00:24:43.291Z,8.67
2018-11-20T00:27:26.098Z,7.73
2018-11-20T00:30:14.383Z,8.07
2018-11-20T00:33:01.338Z,7.07
2018-11-20T00:35:58.196Z,8.43
2018-11-20T00:38:50.743Z,7.97
2018-11-20T00:41:35.234Z,7.80
2018-11-20T00:44:26.384Z,8.97
2018-11-20T00:47:18.051Z,7.97
2018-11-20T00:50:02.771Z,8.87
2018-11-20T00:52:56.734Z,11.73
2018-11-20T00:56:19.163Z,10.70
2018-11-20T00:59:22.353Z,8.37
2018-11-20T01:02:00.401Z,12.00
2018-11-20T01:04:47.079Z,6.93
2018-11-20T01:07:40.970Z,7.93
2018-11-20T01:10:20.524Z,10.83
2018-11-20T01:13:10.492Z,10.33
2018-11-20T01:15:53.355Z,8.00
2018-11-20T01:18:47.950Z,9.53
2018-11-20T01:21:34.742Z,7.60
2018-11-20T01:24:21.054Z,9.17
2018-11-20T01:27:04.386Z,8.57
2018-11-20T01:30:04.393Z,7.13
2018-11-20T01:32:52.721Z,8.33
2018-11-20T01:35:44.610Z,7.17
2018-11-20T01:38:38.536Z,11.40
2018-11-20T01:41:35.965Z,9.03
2018-11-20T01:44:22.723Z,10.37
2018-11-20T01:47:02.356Z,8.93
2018-11-20T01:49:54.693Z,9.27
2018-11-20T01:52:51.846Z,7.70
2018-11-20T01:55:40.530Z,11.07
2018-11-20T01:58:20.241Z,8.50
2018-11-20T02:01:07.668Z,8.50
2018-11-20T02:04:14.198Z,10.00
2018-11-20T02:07:01.759Z,8.20
2018-11-20T02:09:50.372Z,10.40
2018-11-20T02:12:44.568Z,9.20
2018-11-20T02:15:32.406Z,9.80
2018-11-20T02:18:26.599Z,9.07
2018-11-20T02:21:21.634Z,6.97
2018-11-20T02:24:13.598Z,8.53
2018-11-20T02:26:57.959Z,8.43
2018-11-20T02:30:01.420Z,12.23
2018-11-20T02:32:38.860Z,10.03
2018-11-20T02:35:33.311Z,7.53
2018-11-20T02:38:19.700Z,7.37
2018-11-20T02:40:58.583Z,13.47
2018-11-20T02:44:02.463Z,9.00
2018-11-20T02:46:46.966Z,7.43
2018-11-20T02:49:44.265Z,8.03
2018-11-20T02:52:44.272Z,8.67
2018-11-20T02:55:44.351Z,9.40
2018-11-20T02:58:38.700Z,8.13
2018-11-20T03:01:25.699Z,11.53
2018-11-20T03:04:12.486Z,8.60
2018-11-20T03:06:50.173Z,9.70
2018-11-20T03:09:37.126Z,9.73
2018-11-20T03:12:22.343Z,11.57
2018-11-20T03:15:09.208Z,7.93
2018-11-20T03:17:57.377Z,10.03
2018-11-20T03:20:49.236Z,10.73
2018-11-20T03:23:36.065Z,10.13
2018-11-20T03:26:30.789Z,11.50
2018-11-20T03:29:25.284Z,10.17
2018-11-20T03:32:17.728Z,10.07
2018-11-20T03:35:06.390Z,9.77
2018-11-20T03:37:58.014Z,11.63
2018-11-20T03:40:49.162Z,10.63
2018-11-20T03:43:52.651Z,9.80
2018-11-20T03:46:46.662Z,11.60
2018-11-20T03:49:33.739Z,10.67
2018-11-20T03:52:21.895Z,12.50
2018-11-20T03:55:10.240Z,12.80
2018-11-20T03:57:58.512Z,14.40
2018-11-20T04:00:52.441Z,15.40
2018-11-20T04:03:41.275Z,10.77
2018-11-20T04:06:29.037Z,12.63
2018-11-20T04:09:21.828Z,10.17
2018-11-20T04:12:13.739Z,11.20
2018-11-20T04:14:54.255Z,11.10
2018-11-20T04:17:39.144Z,12.33
2018-11-20T04:20:26.159Z,11.53
2018-11-20T04:23:12.714Z,10.90
2018-11-20T04:26:01.058Z,11.10
2018-11-20T04:28:51.960Z,13.93
2018-11-20T04:32:03.767Z,13.80
2018-11-20T04:34:54.921Z,12.73
2018-11-20T04:37:47.834Z,13.70
2018-11-20T04:40:36.685Z,13.07
2018-11-20T04:43:23.890Z,10.10
2018-11-20T04:46:08.055Z,13.87
2018-11-20T04:48:55.454Z,12.03
2018-11-20T04:51:43.803Z,12.90
2018-11-20T04:54:28.475Z,14.77
2018-11-20T04:57:15.352Z,11.53
2018-11-20T05:00:18.541Z,13.70
2018-11-20T05:03:17.452Z,14.27
2018-11-20T05:06:08.748Z,14.60
2018-11-20T05:08:44.681Z,12.77
2018-11-20T05:11:31.824Z,13.70
2018-11-20T05:14:32.988Z,13.37
2018-11-20T05:17:30.726Z,12.50
2018-11-20T05:20:37.133Z,10.87
2018-11-20T05:23:14.775Z,11.87
2018-11-20T05:26:10.188Z,11.97
2018-11-20T05:28:57.320Z,13.17
2018-11-20T05:31:44.687Z,14.93
2018-11-20T05:34:31.463Z,12.53
2018-11-20T05:37:31.914Z,12.87
2018-11-20T05:40:32.069Z,12.13
2018-11-20T05:43:23.379Z,13.97
2018-11-20T05:46:10.216Z,13.73
2018-11-20T05:49:16.405Z,13.53
2018-11-20T05:52:13.569Z,13.53
2018-11-20T05:55:00.497Z,11.97
2018-11-20T05:57:48.149Z,13.53
2018-11-20T06:00:26.051Z,12.47
2018-11-20T06:03:33.358Z,15.47
2018-11-20T06:06:22.625Z,13.03
2018-11-20T06:09:08.291Z,12.33
2018-11-20T06:12:05.898Z,14.13
2018-11-20T06:14:52.558Z,14.23
2018-11-20T06:17:39.246Z,14.80
2018-11-20T06:20:27.559Z,16.13
2018-11-20T06:23:21.934Z,13.73
2018-11-20T06:26:08.790Z,13.57
2018-11-20T06:29:12.333Z,13.03
2018-11-20T06:32:04.026Z,15.67
2018-11-20T06:34:52.399Z,16.07
2018-11-20T06:37:46.996Z,18.60
2018-11-20T06:40:36.409Z,18.83
2018-11-20T06:43:30.462Z,13.47
2018-11-20T06:46:09.575Z,13.90
2018-11-20T06:48:50.723Z,19.57
2018-11-20T06:51:31.354Z,14.67
2018-11-20T06:54:25.517Z,18.90
2018-11-20T06:57:29.130Z,14.53
2018-11-20T07:00:15.877Z,18.20
2018-11-20T07:02:55.336Z,14.50
2018-11-20T07:05:41.674Z,14.90
2018-11-20T07:08:39.100Z,16.47
2018-11-20T07:11:26.151Z,16.67
2018-11-20T07:14:35.822Z,15.93
2018-11-20T07:17:38.093Z,14.73
2018-11-20T07:20:25.448Z,18.30
2018-11-20T07:23:12.476Z,14.77
2018-11-20T07:25:54.045Z,19.67
2018-11-20T07:28:51.115Z,12.93
2018-11-20T07:31:38.796Z,14.80
2018-11-20T07:34:32.733Z,16.80
2018-11-20T07:37:19.819Z,14.70
2018-11-20T07:40:06.672Z,18.07
2018-11-20T07:42:53.468Z,16.13
2018-11-20T07:45:45.121Z,13.63
2018-11-20T07:48:42.321Z,13.63
2018-11-20T07:51:33.807Z,14.93
2018-11-20T07:54:14.202Z,14.43
2018-11-20T07:57:01.339Z,22.00
2018-11-20T07:59:47.909Z,14.63
2018-11-20T08:02:54.039Z,14.47
2018-11-20T08:05:55.323Z,14.90
2018-11-20T08:08:45.019Z,12.03
2018-11-20T08:11:49.286Z,13.27
2018-11-20T08:14:31.019Z,13.67
2018-11-20T08:17:11.784Z,13.23
2018-11-20T08:20:11.937Z,14.93
2018-11-20T08:23:07.745Z,14.57
2018-11-20T08:26:01.135Z,17.87
2018-11-20T08:28:47.590Z,17.27
2018-11-20T08:31:38.494Z,15.17
2018-11-20T08:34:38.669Z,12.17
2018-11-20T08:37:20.832Z,13.97
2018-11-20T08:40:20.305Z,14.83
2018-11-20T08:43:07.161Z,11.33
2018-11-20T08:45:53.628Z,12.83
2018-11-20T08:48:50.693Z,12.63
2018-11-20T08:51:37.882Z,13.13
2018-11-20T08:54:26.213Z,14.30
2018-11-20T08:57:17.139Z,14.03
2018-11-20T08:59:54.220Z,15.23
2018-11-20T09:02:40.274Z,14.43
2018-11-20T09:05:38.250Z,14.73
2018-11-20T09:08:24.782Z,14.40
2018-11-20T09:11:15.598Z,17.80
2018-11-20T09:14:18.519Z,12.90
2018-11-20T09:17:12.748Z,12.47
2018-11-20T09:20:00.056Z,11.63
2018-11-20T09:22:57.484Z,13.53
2018-11-20T09:25:46.113Z,16.80
2018-11-20T09:28:33.081Z,15.77
2018-11-20T09:31:21.416Z,13.37
2018-11-20T09:34:08.503Z,14.60
2018-11-20T09:36:59.402Z,12.53
2018-11-20T09:39:54.414Z,15.67
2018-11-20T09:42:48.780Z,15.53
2018-11-20T09:45:58.559Z,14.80
2018-11-20T09:48:55.568Z,11.73
2018-11-20T09:51:42.127Z,14.53
2018-11-20T09:54:29.955Z,17.20
2018-11-20T09:57:11.670Z,17.03
2018-11-20T10:00:00.537Z,17.07
2018-11-20T10:03:03.774Z,17.33
2018-11-20T10:05:50.502Z,16.13
2018-11-20T10:08:41.499Z,16.53
2018-11-20T10:11:39.806Z,16.50
2018-11-20T10:14:50.924Z,17.07
2018-11-20T10:17:46.017Z,18.27
2018-11-20T10:20:33.734Z,16.90
2018-11-20T10:23:15.187Z,17.33
2018-11-20T10:26:03.694Z,14.20
2018-11-20T10:28:55.438Z,16.87
2018-11-20T10:31:42.197Z,17.23
2018-11-20T10:34:28.837Z,16.20
2018-11-20T10:37:17.238Z,17.87
2018-11-20T10:40:12.810Z,18.50
2018-11-20T10:42:59.447Z,16.40
2018-11-20T10:45:57.061Z,17.33
2018-11-20T10:48:57.274Z,20.20
2018-11-20T10:51:41.126Z,17.50
2018-11-20T10:54:27.928Z,19.50
2018-11-20T10:57:15.001Z,21.10
2018-11-20T11:00:14.962Z,24.87
2018-11-20T11:03:01.811Z,18.77
2018-11-20T11:05:49.851Z,21.57
2018-11-20T11:08:36.501Z,21.53
2018-11-20T11:11:33.754Z,19.60
2018-11-20T11:14:24.265Z,17.03
2018-11-20T11:17:12.713Z,21.67
2018-11-20T11:20:11.628Z,20.13
2018-11-20T11:22:53.567Z,22.00
2018-11-20T11:25:44.248Z,25.20
2018-11-20T11:28:31.173Z,22.90
2018-11-20T11:31:18.187Z,19.87
2018-11-20T11:34:15.266Z,26.03
2018-11-20T11:37:09.226Z,24.47
2018-11-20T11:39:53.406Z,20.20
2018-11-20T11:42:50.791Z,21.57
2018-11-20T11:45:38.060Z,22.40
2018-11-20T11:48:26.381Z,21.43
2018-11-20T11:51:07.011Z,24.30
2018-11-20T11:53:55.309Z,22.43
2018-11-20T11:56:42.142Z,21.73
2018-11-20T11:59:42.160Z,23.37
2018-11-20T12:05:20.973Z,22.40
2018-11-20T12:08:21.333Z,22.83
2018-11-20T12:11:07.516Z,27.03
2018-11-20T12:13:52.927Z,22.67
2018-11-20T12:16:50.908Z,24.03
2018-11-20T12:19:41.895Z,22.23
2018-11-20T12:22:28.780Z,24.40
2018-11-20T12:25:23.765Z,28.10
2018-11-20T12:28:18.833Z,25.80
2018-11-20T12:31:02.349Z,21.63
2018-11-20T12:33:59.969Z,23.27
2018-11-20T12:36:48.777Z,25.23
2018-11-20T12:39:34.721Z,25.70
2018-11-20T12:42:29.033Z,21.10
2018-11-20T12:45:13.573Z,21.40
2018-11-20T12:48:03.629Z,24.03
2018-11-20T12:51:07.699Z,25.27
2018-11-20T12:53:52.984Z,25.37
2018-11-20T12:56:47.160Z,29.90
2018-11-20T12:59:34.310Z,25.57
2018-11-20T13:02:20.788Z,25.23
2018-11-20T13:05:06.626Z,25.43
2018-11-20T13:08:01.174Z,25.13
2018-11-20T13:10:48.622Z,29.43
2018-11-20T13:13:36.666Z,28.77
2018-11-20T13:16:35.658Z,25.23
2018-11-20T13:19:17.000Z,25.67
2018-11-20T13:22:04.347Z,28.20
2018-11-20T13:24:44.220Z,26.37
2018-11-20T13:27:44.263Z,25.60
2018-11-20T13:30:32.143Z,25.27
2018-11-20T13:33:23.564Z,24.03
2018-11-20T13:36:10.420Z,27.83
2018-11-20T13:39:52.024Z,24.27
2018-11-20T13:42:36.245Z,23.70
2018-11-20T13:45:36.536Z,23.00
2018-11-20T13:48:42.363Z,28.87
2018-11-20T13:51:29.791Z,28.27
2018-11-20T13:54:19.890Z,24.57
2018-11-20T13:57:00.116Z,26.10
2018-11-20T13:59:51.063Z,27.83
2018-11-20T14:02:36.825Z,23.30
2018-11-20T14:05:18.799Z,24.63
2018-11-20T14:08:15.763Z,28.13
2018-11-20T14:11:03.433Z,25.10
2018-11-20T14:13:43.661Z,29.63
2018-11-20T14:16:30.366Z,27.80
2018-11-20T14:19:18.361Z,24.47
2018-11-20T14:21:57.020Z,27.93
2018-11-20T14:24:50.607Z,29.20
2018-11-20T14:27:47.438Z,29.20
2018-11-20T14:30:27.151Z,26.03
2018-11-20T14:33:29.933Z,30.00
2018-11-20T14:36:16.464Z,29.30
2018-11-20T14:39:10.482Z,32.13
2018-11-20T14:41:56.766Z,28.80
2018-11-20T14:44:44.321Z,28.10
2018-11-20T14:47:30.877Z,28.33
2018-11-20T14:50:28.854Z,26.93
2018-11-20T14:53:03.287Z,27.07
2018-11-20T14:55:56.817Z,30.03
2018-11-20T14:58:36.900Z,29.37
2018-11-20T15:01:18.774Z,23.77
2018-11-20T15:04:09.556Z,23.47
2018-11-20T15:06:59.664Z,27.27
2018-11-20T15:09:46.195Z,26.13
2018-11-20T15:12:30.772Z,25.53
2018-11-20T15:15:18.340Z,24.20
2018-11-20T15:18:11.926Z,29.83
2018-11-20T15:21:00.136Z,26.87
2018-11-20T15:23:47.634Z,23.03
2018-11-20T15:26:40.743Z,23.77
2018-11-20T15:29:34.855Z,23.97
2018-11-20T15:32:37.625Z,24.63
2018-11-20T15:35:38.294Z,22.13
2018-11-20T15:38:25.827Z,20.67
2018-11-20T15:41:01.314Z,18.63
2018-11-20T15:43:51.196Z,21.63
2018-11-20T15:46:39.121Z,18.17
2018-11-20T15:49:25.818Z,15.73
2018-11-20T15:52:13.436Z,18.47
2018-11-20T15:55:00.988Z,17.07
2018-11-20T15:58:06.936Z,18.83
2018-11-20T16:00:54.426Z,15.07
2018-11-20T16:03:47.924Z,18.03
2018-11-20T16:06:47.271Z,17.07
2018-11-20T16:09:29.425Z,15.33
2018-11-20T16:12:34.862Z,17.63
2018-11-20T16:15:36.460Z,16.87
2018-11-20T16:18:32.275Z,17.23
2018-11-20T16:21:19.773Z,17.93
2018-11-20T16:24:01.179Z,12.93
2018-11-20T16:26:47.515Z,15.80
2018-11-20T16:29:28.839Z,13.80
2018-11-20T16:32:28.660Z,22.33
2018-11-20T16:35:19.806Z,13.07
2018-11-20T16:38:05.940Z,13.43
2018-11-20T16:40:56.065Z,12.87
2018-11-20T16:43:57.261Z,15.07
2018-11-20T16:46:53.316Z,11.63
2018-11-20T16:49:33.935Z,14.33
2018-11-20T16:52:27.817Z,12.80
2018-11-20T16:55:33.834Z,11.93
2018-11-20T16:58:20.176Z,13.67
2018-11-20T17:01:08.082Z,13.53
2018-11-20T17:03:46.890Z,16.47
2018-11-20T17:06:36.044Z,14.77
2018-11-20T17:09:31.943Z,15.20
2018-11-20T17:12:33.371Z,14.20
2018-11-20T17:15:26.719Z,13.97
2018-11-20T17:18:08.178Z,14.33
2018-11-20T17:20:55.241Z,18.50
2018-11-20T17:23:49.549Z,15.53
2018-11-20T17:26:49.320Z,14.47
2018-11-20T17:29:46.054Z,15.13
2018-11-20T17:32:49.594Z,13.80
2018-11-20T17:35:51.181Z,13.40
2018-11-20T17:38:47.657Z,14.20
2018-11-20T17:41:41.296Z,15.67
2018-11-20T17:44:21.654Z,13.80
2018-11-20T17:47:08.090Z,15.03
2018-11-20T17:50:03.915Z,18.93
2018-11-20T17:52:49.996Z,15.00
2018-11-20T17:55:26.396Z,15.13
2018-11-20T17:58:12.723Z,16.40
2018-11-20T18:00:58.858Z,14.90
2018-11-20T18:03:49.880Z,14.17
2018-11-20T18:06:46.230Z,14.90
2018-11-20T18:09:24.875Z,13.47
2018-11-20T18:12:11.021Z,17.57
2018-11-20T18:14:57.948Z,13.23
2018-11-20T18:17:44.728Z,14.23
2018-11-20T18:20:35.280Z,15.73
2018-11-20T18:23:32.607Z,15.97
2018-11-20T18:26:24.367Z,17.40
2018-11-20T18:29:15.096Z,17.53
2018-11-20T18:32:10.540Z,15.23
2018-11-20T18:34:56.390Z,15.27
2018-11-20T18:37:41.738Z,16.10
2018-11-20T18:40:35.028Z,14.33
2018-11-20T18:43:20.268Z,16.80
2018-11-20T18:46:06.592Z,16.17
2018-11-20T18:48:52.647Z,20.33
2018-11-20T18:51:45.873Z,15.47
2018-11-20T18:54:43.799Z,15.93
2018-11-20T18:57:28.301Z,18.87
2018-11-20T19:00:24.999Z,16.17
2018-11-20T19:03:12.124Z,20.37
2018-11-20T19:05:58.101Z,16.30
2018-11-20T19:08:44.227Z,17.03
2018-11-20T19:11:30.458Z,17.83
2018-11-20T19:14:27.378Z,16.67
2018-11-20T19:17:30.273Z,20.33
2018-11-20T19:20:21.291Z,16.10
2018-11-20T19:23:17.566Z,17.97
2018-11-20T19:26:17.136Z,20.03
2018-11-20T19:29:16.914Z,18.93
2018-11-20T19:32:03.587Z,18.23
2018-11-20T19:35:00.467Z,18.03
2018-11-20T19:37:50.897Z,18.30
2018-11-20T19:40:38.729Z,16.37
2018-11-20T19:43:32.195Z,19.93
2018-11-20T19:46:28.204Z,16.53
2018-11-20T19:49:15.830Z,17.77
2018-11-20T19:52:04.059Z,16.40
2018-11-20T19:54:49.970Z,17.37
2018-11-20T19:57:35.627Z,19.70
2018-11-20T20:00:23.078Z,19.07
2018-11-20T20:03:07.976Z,17.90
2018-11-20T20:06:01.033Z,19.50
2018-11-20T20:08:57.426Z,20.70
2018-11-20T20:11:39.340Z,20.47
2018-11-20T20:14:30.231Z,17.93
2018-11-20T20:17:36.209Z,19.63
2018-11-20T20:20:29.707Z,18.73
2018-11-20T20:23:16.386Z,20.83
2018-11-20T20:26:19.271Z,22.00
2018-11-20T20:29:05.579Z,21.17
2018-11-20T20:31:50.040Z,19.83
2018-11-20T20:34:40.304Z,20.70
2018-11-20T20:37:22.748Z,21.73
2018-11-20T20:40:10.116Z,26.60
2018-11-20T20:42:56.273Z,21.47
2018-11-20T20:45:34.831Z,21.53
2018-11-20T20:48:21.583Z,24.87
2018-11-20T20:51:05.363Z,20.40
2018-11-20T20:53:49.937Z,22.50
2018-11-20T20:56:43.756Z,24.87
2018-11-20T20:59:32.668Z,20.27
2018-11-20T21:02:29.788Z,20.90
2018-11-20T21:05:27.264Z,20.80
2018-11-20T21:08:08.866Z,22.63
2018-11-20T21:11:02.256Z,21.83
2018-11-20T21:13:55.947Z,18.73
2018-11-20T21:16:41.381Z,25.70
2018-11-20T21:19:39.223Z,24.33
2018-11-20T21:22:36.896Z,23.37
2018-11-20T21:25:19.119Z,20.13
2018-11-20T21:28:09.845Z,24.13
2018-11-20T21:30:55.431Z,22.43
2018-11-20T21:33:33.844Z,23.03
2018-11-20T21:36:12.199Z,24.83
2018-11-20T21:39:06.566Z,24.90
2018-11-20T21:42:03.071Z,25.00
2018-11-20T21:44:56.809Z,23.27
2018-11-20T21:47:42.728Z,26.90
2018-11-20T21:50:29.031Z,23.83
2018-11-20T21:53:16.068Z,26.17
2018-11-20T21:56:13.713Z,23.50
2018-11-20T21:59:00.129Z,26.03
2018-11-20T22:02:05.791Z,24.37
2018-11-20T22:04:54.507Z,29.87
2018-11-20T22:07:48.412Z,27.33
2018-11-20T22:10:33.301Z,25.40
2018-11-20T22:13:19.610Z,24.77
2018-11-20T22:16:06.110Z,25.97
2018-11-20T22:18:53.787Z,25.00
2018-11-20T22:21:44.127Z,26.47
2018-11-20T22:24:37.799Z,30.20
2018-11-20T22:27:19.657Z,27.87
2018-11-20T22:30:16.171Z,28.93
2018-11-20T22:33:06.409Z,28.97
2018-11-20T22:35:53.805Z,28.73
2018-11-20T22:38:53.656Z,26.40
2018-11-20T22:41:40.267Z,28.37
2018-11-20T22:44:27.912Z,28.60
2018-11-20T22:47:21.429Z,25.90
2018-11-20T22:50:21.750Z,26.27
2018-11-20T22:53:08.249Z,29.67
2018-11-20T22:55:44.724Z,31.37
2018-11-20T22:58:21.033Z,29.30
2018-11-20T23:01:08.382Z,28.60
2018-11-20T23:03:54.654Z,30.13
2018-11-20T23:06:47.022Z,31.77
2018-11-20T23:09:15.461Z,27.83
2018-11-20T23:11:43.824Z,29.97
2018-11-20T23:14:12.538Z,26.33
2018-11-20T23:16:42.581Z,29.43
2018-11-20T23:19:10.944Z,28.87
2018-11-20T23:21:42.116Z,28.80
2018-11-20T23:24:13.612Z,27.87
2018-11-20T23:26:42.384Z,27.83
2018-11-20T23:29:10.859Z,31.33
2018-11-20T23:31:39.255Z,29.93
2018-11-20T23:34:08.075Z,31.83
2018-11-20T23:36:36.635Z,30.30
2018-11-20T23:39:08.452Z,30.67
2018-11-20T23:41:38.239Z,27.97
2018-11-20T23:44:06.687Z,29.87
2018-11-20T23:46:35.348Z,33.77
2018-11-20T23:49:03.746Z,27.37
2018-11-20T23:51:33.041Z,29.27
2018-11-20T23:54:02.073Z,27.20
2018-11-20T23:56:31.259Z,29.27
2018-11-20T23:59:01.561Z,28.77
